Necker Belle — MKYK7 — position and weather

sailwx.info

Track history (hours):
 
Tides and Currents Weather Stations Pressure Air Temp Water Temp Dewpoint Dewpoint Depression Visibility Wind Speed Wind Dir Waves Ship Positions

Necker Belle

Last reported at 2015-Mar-18 08:33 UTC. Time now 2015-Mar-29 09:23 UTC.
Position N 16°32' W 061°48'.
Warning: this ship's position is 11 days out of date.

Length 32 m.

Type: Sailing vessel. MMSI: 232728000.

Date/timePositionNaut miles runAvg speedWind from/ knotsBaromVisibWave heightAir tempDewpointWater temp
2015-Mar-18 08:33N 16°32' W 061°48'1111.4
2015-Mar-18 07:33N 16°43' W 061°45'1111.1
2015-Mar-18 06:33N 16°54' W 061°42'1010.1
2015-Mar-18 05:33N 17°04' W 061°40'1 1.3
2015-Mar-18 04:33N 17°05' W 061°41'0 0.0
2015-Mar-18 03:27N 17°05' W 061°40'0 0.0
2015-Mar-18 02:33N 17°05' W 061°40'0 0.0
2015-Mar-18 01:33N 17°05' W 061°40'0 0.0
2015-Mar-18 00:33N 17°05' W 061°40'0 0.0
2015-Mar-17 23:33N 17°05' W 061°41'0 0.0
2015-Mar-17 22:33N 17°05' W 061°40'0 0.0
2015-Mar-17 21:30N 17°05' W 061°41'  
2015-Mar-14 21:17N 18°14' W 064°48'5 0.2
2015-Mar-13 21:20N 18°19' W 064°50'5 5.7
2015-Mar-13 20:29N 18°22' W 064°45'0 0.0
2015-Mar-13 19:29N 18°22' W 064°45'0 0.0
2015-Mar-13 18:29N 18°22' W 064°45'0 0.0
2015-Mar-13 17:29N 18°22' W 064°45'1 1.2
2015-Mar-13 16:33N 18°22' W 064°46'3 3.3
2015-Mar-13 15:33N 18°25' W 064°45'1 0.9
2015-Mar-13 14:27N 18°26' W 064°46'0 0.0
2015-Mar-13 13:33N 18°26' W 064°46'0 0.0
2015-Mar-13 12:33N 18°26' W 064°46'0 0.0
2015-Mar-13 11:33N 18°26' W 064°46'0 0.0
2015-Mar-13 10:33N 18°26' W 064°46'0 0.0
2015-Mar-13 09:33N 18°26' W 064°46'0 0.0
2015-Mar-13 08:33N 18°26' W 064°46'0 0.0
2015-Mar-13 07:09N 18°26' W 064°46'0 0.0
2015-Mar-13 06:15N 18°26' W 064°46'0 0.0
2015-Mar-13 05:27N 18°26' W 064°46'0 0.0
2015-Mar-13 04:33N 18°26' W 064°46'0 0.0
2015-Mar-13 03:30N 18°26' W 064°46'0 0.0
2015-Mar-13 02:27N 18°26' W 064°46'0 0.0
2015-Mar-13 01:33N 18°26' W 064°46'0 0.0
2015-Mar-13 00:09N 18°26' W 064°46'0 0.0
2015-Mar-12 23:33N 18°26' W 064°46'0 0.0
2015-Mar-12 22:32N 18°26' W 064°46'0 0.0
2015-Mar-12 21:32N 18°26' W 064°46'0 0.0
2015-Mar-12 20:26N 18°26' W 064°46'0 0.0
2015-Mar-12 19:32N 18°26' W 064°46'3 2.9
2015-Mar-12 18:33N 18°26' W 064°43'0 0.0
2015-Mar-12 17:21N 18°26' W 064°43'0 0.0
2015-Mar-12 16:21N 18°26' W 064°43'0 0.0
2015-Mar-12 15:33N 18°26' W 064°43'0 0.0
2015-Mar-12 14:27N 18°26' W 064°43'1 1.0
2015-Mar-12 13:33N 18°26' W 064°42'  
2015-Mar-09 17:26N 18°26' W 064°27'0 0.0
2015-Mar-09 15:25N 18°26' W 064°27'6 7.3
2015-Mar-09 14:33N 18°23' W 064°33'3 0.3
2015-Mar-09 05:20N 18°21' W 064°35'  
Track history (hours):
 
Tides and Currents Weather Stations Pressure Air Temp Water Temp Dewpoint Dewpoint Depression Visibility Wind Speed Wind Dir Waves Ship Positions

Necker Belle

Last reported at 2015-Mar-18 08:33 UTC. Time now 2015-Mar-29 09:23 UTC.
Position N 16°32' W 061°48'.
Warning: this ship's position is 11 days out of date.

Length 32 m.

Type: Sailing vessel. MMSI: 232728000.

Date/timePositionNaut miles runAvg speedWind from/ knotsBaromVisibWave heightAir tempDewpointWater temp
2015-Mar-18 08:33N 16°32' W 061°48'1111.4
2015-Mar-18 07:33N 16°43' W 061°45'1111.1
2015-Mar-18 06:33N 16°54' W 061°42'1010.1
2015-Mar-18 05:33N 17°04' W 061°40'1 1.3
2015-Mar-18 04:33N 17°05' W 061°41'0 0.0
2015-Mar-18 03:27N 17°05' W 061°40'0 0.0
2015-Mar-18 02:33N 17°05' W 061°40'0 0.0
2015-Mar-18 01:33N 17°05' W 061°40'0 0.0
2015-Mar-18 00:33N 17°05' W 061°40'0 0.0
2015-Mar-17 23:33N 17°05' W 061°41'0 0.0
2015-Mar-17 22:33N 17°05' W 061°40'0 0.0
2015-Mar-17 21:30N 17°05' W 061°41'  
2015-Mar-14 21:17N 18°14' W 064°48'5 0.2
2015-Mar-13 21:20N 18°19' W 064°50'5 5.7
2015-Mar-13 20:29N 18°22' W 064°45'0 0.0
2015-Mar-13 19:29N 18°22' W 064°45'0 0.0
2015-Mar-13 18:29N 18°22' W 064°45'0 0.0
2015-Mar-13 17:29N 18°22' W 064°45'1 1.2
2015-Mar-13 16:33N 18°22' W 064°46'3 3.3
2015-Mar-13 15:33N 18°25' W 064°45'1 0.9
2015-Mar-13 14:27N 18°26' W 064°46'0 0.0
2015-Mar-13 13:33N 18°26' W 064°46'0 0.0
2015-Mar-13 12:33N 18°26' W 064°46'0 0.0
2015-Mar-13 11:33N 18°26' W 064°46'0 0.0
2015-Mar-13 10:33N 18°26' W 064°46'0 0.0
2015-Mar-13 09:33N 18°26' W 064°46'0 0.0
2015-Mar-13 08:33N 18°26' W 064°46'0 0.0
2015-Mar-13 07:09N 18°26' W 064°46'0 0.0
2015-Mar-13 06:15N 18°26' W 064°46'0 0.0
2015-Mar-13 05:27N 18°26' W 064°46'0 0.0
2015-Mar-13 04:33N 18°26' W 064°46'0 0.0
2015-Mar-13 03:30N 18°26' W 064°46'0 0.0
2015-Mar-13 02:27N 18°26' W 064°46'0 0.0
2015-Mar-13 01:33N 18°26' W 064°46'0 0.0
2015-Mar-13 00:09N 18°26' W 064°46'0 0.0
2015-Mar-12 23:33N 18°26' W 064°46'0 0.0
2015-Mar-12 22:32N 18°26' W 064°46'0 0.0
2015-Mar-12 21:32N 18°26' W 064°46'0 0.0
2015-Mar-12 20:26N 18°26' W 064°46'0 0.0
2015-Mar-12 19:32N 18°26' W 064°46'3 2.9
2015-Mar-12 18:33N 18°26' W 064°43'0 0.0
2015-Mar-12 17:21N 18°26' W 064°43'0 0.0
2015-Mar-12 16:21N 18°26' W 064°43'0 0.0
2015-Mar-12 15:33N 18°26' W 064°43'0 0.0
2015-Mar-12 14:27N 18°26' W 064°43'1 1.0
2015-Mar-12 13:33N 18°26' W 064°42'  
2015-Mar-09 17:26N 18°26' W 064°27'0 0.0
2015-Mar-09 15:25N 18°26' W 064°27'6 7.3
2015-Mar-09 14:33N 18°23' W 064°33'3 0.3
2015-Mar-09 05:20N 18°21' W 064°35'  

Dump ship's entire track history